Historique des mesures à Cassis (13260), France
Quotidien Résumé Septembre 19, 2017 Unités:  Métrique    US   Métrique/US
« Précédent (Jour)
Suivant (Jour) »
Quotidien Hebdomadaire Mensuel Annuel Période au choix
  Maximum: Minimum: Moyenne:
Température: TemperatureC °C 13.5 °C 15.7 °C
Point de rosée: DewpointC °C 4.7 °C 6.1 °C
Humidité: Humidity % 42 % 50 %
Vitesse du vent: 0 km/h 16.9 km/h 31.1 km/h
Rafales: 0 km/h - -
Vent:- - South
Pression: PressurehPa hPa 1011.4 hPa -
Précipitations: 0.0 mm    
Historical Graphs
 
 
Mesures pour : Septembre 19, 2017
Heure Temperature Point de rosée Pression Vent Vitesse du vent Rafales Humidité Pluie (par heure) Conditions
TemperatureC °C DewpointC °C PressurehPa hPa Calm     Humidity % HourlyPrecipMM mm SoftwareType W/m2
00:11 16.3 °C 7.2 °C 1012.1 hPa NNE 16.9 km/h 29 km/h 55 % 0.0 mm open2300-1.11 W/m2
01:11 16.1 °C 6.5 °C 1011.4 hPa North 23.8 km/h 50.5 km/h 53 % 0.0 mm open2300-1.11 W/m2
02:11 16.0 °C 5.6 °C 1011.7 hPa North 36 km/h 36 km/h 50 % 0.0 mm open2300-1.11 W/m2
03:11 15.5 °C 5.9 °C 1011.4 hPa NNE 34.1 km/h 46.8 km/h 53 % 0.0 mm open2300-1.11 W/m2
04:11 14.8 °C 5.8 °C 1011.7 hPa North 30.1 km/h 30.1 km/h 55 % 0.0 mm open2300-1.11 W/m2
05:11 14.1 °C 6.7 °C 1012.1 hPa NNW 17.9 km/h 33.2 km/h 61 % 0.0 mm open2300-1.11 W/m2
06:12 13.9 °C 6.9 °C 1012.1 hPa WNW 36.5 km/h 36.5 km/h 63 % 0.0 mm open2300-1.11 W/m2
07:11 13.7 °C 6.8 °C 1012.4 hPa WNW 25.4 km/h 51 km/h 63 % 0.0 mm open2300-1.11 W/m2
08:11 13.5 °C 6.8 °C 1012.8 hPa NNW 26.2 km/h 26.2 km/h 64 % 0.0 mm open2300-1.11 W/m2
09:11 14.1 °C 7.2 °C 1012.8 hPa North 17.4 km/h 36.5 km/h 63 % 0.0 mm open2300-1.11 W/m2
10:11 15.2 °C 7.2 °C 1012.8 hPa WNW 45.4 km/h 45.4 km/h 59 % 0.0 mm open2300-1.11 W/m2
11:11 16.4 °C 7.1 °C 1012.8 hPa WNW 51 km/h 51 km/h 54 % 0.0 mm open2300-1.11 W/m2
12:11 16.9 °C 6.9 °C 1012.4 hPa North 19.6 km/h 31.4 km/h 52 % 0.0 mm open2300-1.11 W/m2
13:11 18.5 °C 7.2 °C 1011.7 hPa NW 58.6 km/h 58.6 km/h 48 % 0.0 mm open2300-1.11 W/m2
14:11 18.2 °C 5.7 °C 1011.7 hPa NE 25.4 km/h 64.7 km/h 44 % 0.0 mm open2300-1.11 W/m2
15:11 18.9 °C 6.0 °C 1011.4 hPa NNW 22.5 km/h 44.1 km/h 43 % 0.0 mm open2300-1.11 W/m2
16:11 18.9 °C 6.3 °C 1011.4 hPa North 22 km/h 51 km/h 44 % 0.0 mm open2300-1.11 W/m2
17:11 19.3 °C 6.0 °C 1011.4 hPa NW 51.5 km/h 57.3 km/h 42 % 0.0 mm open2300-1.11 W/m2
18:11 18.8 °C 5.6 °C 1011.4 hPa NE 49.2 km/h 49.2 km/h 42 % 0.0 mm open2300-1.11 W/m2
19:11 17.9 °C 4.7 °C 1011.7 hPa North 31.4 km/h 54.9 km/h 42 % 0.0 mm open2300-1.11 W/m2
20:11 16.8 °C 6.0 °C 1011.7 hPa NNW 50.5 km/h 51 km/h 49 % 0.0 mm open2300-1.11 W/m2
21:11 16.3 °C 5.9 °C 1012.8 hPa NW 16.9 km/h 63.7 km/h 50 % 0.0 mm open2300-1.11 W/m2
22:11 15.9 °C 5.8 °C 1013.4 hPa NNW 27.7 km/h 42.2 km/h 51 % 0.0 mm open2300-1.11 W/m2
23:11 15.4 °C 6.1 °C 1012.8 hPa NNW 38.3 km/h 49.2 km/h 54 % 0.0 mm open2300-1.11 W/m2
Observations météo à CASSIS
WU-History script by Weather Underground - 1 mb